sensor_id;sensor_type;location;lat;lon;timestamp;temperature;humidity
12845;DHT22;68700;48.534;9.196;2023-09-07T00:02:35;14.40;24.30
12845;DHT22;68700;48.534;9.196;2023-09-07T00:05:57;14.30;56.80
12845;DHT22;68700;48.534;9.196;2023-09-07T00:09:19;14.20;27.90
12845;DHT22;68700;48.534;9.196;2023-09-07T00:12:42;14.20;63.50
12845;DHT22;68700;48.534;9.196;2023-09-07T00:16:05;14.20;34.80
12845;DHT22;68700;48.534;9.196;2023-09-07T00:19:29;14.00;8.70
12845;DHT22;68700;48.534;9.196;2023-09-07T00:22:52;13.90;28.40
12845;DHT22;68700;48.534;9.196;2023-09-07T00:26:14;13.90;39.70
12845;DHT22;68700;48.534;9.196;2023-09-07T00:29:36;13.90;82.00
12845;DHT22;68700;48.534;9.196;2023-09-07T00:32:58;13.90;99.90
12845;DHT22;68700;48.534;9.196;2023-09-07T00:36:21;14.00;99.90
12845;DHT22;68700;48.534;9.196;2023-09-07T00:39:43;14.10;99.90
12845;DHT22;68700;48.534;9.196;2023-09-07T00:43:04;14.10;99.90
12845;DHT22;68700;48.534;9.196;2023-09-07T00:46:26;14.10;99.90
12845;DHT22;68700;48.534;9.196;2023-09-07T00:49:48;14.20;99.90
12845;DHT22;68700;48.534;9.196;2023-09-07T00:53:12;14.20;99.90
12845;DHT22;68700;48.534;9.196;2023-09-07T00:56:35;14.20;99.90
12845;DHT22;68700;48.534;9.196;2023-09-07T00:59:57;14.20;99.90
12845;DHT22;68700;48.534;9.196;2023-09-07T01:03:20;14.20;99.90
12845;DHT22;68700;48.534;9.196;2023-09-07T01:06:47;14.20;99.90
12845;DHT22;68700;48.534;9.196;2023-09-07T01:10:13;14.10;99.90
12845;DHT22;68700;48.534;9.196;2023-09-07T01:13:35;14.10;99.90
12845;DHT22;68700;48.534;9.196;2023-09-07T01:16:57;14.00;99.90
12845;DHT22;68700;48.534;9.196;2023-09-07T01:20:20;14.00;99.90
12845;DHT22;68700;48.534;9.196;2023-09-07T01:23:45;14.00;99.90
12845;DHT22;68700;48.534;9.196;2023-09-07T01:27:08;13.90;99.90
12845;DHT22;68700;48.534;9.196;2023-09-07T01:30:30;13.90;99.90
12845;DHT22;68700;48.534;9.196;2023-09-07T01:33:52;13.90;99.90
12845;DHT22;68700;48.534;9.196;2023-09-07T01:37:14;13.80;99.90
12845;DHT22;68700;48.534;9.196;2023-09-07T01:40:37;13.70;99.90
12845;DHT22;68700;48.534;9.196;2023-09-07T01:43:59;13.60;99.90
12845;DHT22;68700;48.534;9.196;2023-09-07T01:47:21;13.60;86.80
12845;DHT22;68700;48.534;9.196;2023-09-07T01:50:43;13.60;86.00
12845;DHT22;68700;48.534;9.196;2023-09-07T01:54:05;13.60;66.10
12845;DHT22;68700;48.534;9.196;2023-09-07T01:57:28;13.50;72.30
12845;DHT22;68700;48.534;9.196;2023-09-07T02:00:52;13.40;81.10
12845;DHT22;68700;48.534;9.196;2023-09-07T02:04:14;13.40;58.40
12845;DHT22;68700;48.534;9.196;2023-09-07T02:07:35;13.30;80.20
12845;DHT22;68700;48.534;9.196;2023-09-07T02:10:57;13.30;99.90
12845;DHT22;68700;48.534;9.196;2023-09-07T02:14:20;13.30;99.90
12845;DHT22;68700;48.534;9.196;2023-09-07T02:17:42;13.20;78.90
12845;DHT22;68700;48.534;9.196;2023-09-07T02:21:05;13.20;99.90
12845;DHT22;68700;48.534;9.196;2023-09-07T02:24:27;13.20;99.90
12845;DHT22;68700;48.534;9.196;2023-09-07T02:27:49;13.10;99.90
12845;DHT22;68700;48.534;9.196;2023-09-07T02:31:12;13.10;86.00
12845;DHT22;68700;48.534;9.196;2023-09-07T02:34:34;13.10;99.90
12845;DHT22;68700;48.534;9.196;2023-09-07T02:37:56;13.10;99.90
12845;DHT22;68700;48.534;9.196;2023-09-07T02:41:18;13.10;99.90
12845;DHT22;68700;48.534;9.196;2023-09-07T02:44:40;13.00;99.90
12845;DHT22;68700;48.534;9.196;2023-09-07T02:48:04;13.00;99.90
12845;DHT22;68700;48.534;9.196;2023-09-07T02:51:26;13.00;99.90
12845;DHT22;68700;48.534;9.196;2023-09-07T02:54:47;13.00;99.90
12845;DHT22;68700;48.534;9.196;2023-09-07T02:58:09;13.00;99.90
12845;DHT22;68700;48.534;9.196;2023-09-07T03:01:31;13.00;78.20
12845;DHT22;68700;48.534;9.196;2023-09-07T03:04:55;12.90;74.50
12845;DHT22;68700;48.534;9.196;2023-09-07T03:08:18;12.90;81.80
12845;DHT22;68700;48.534;9.196;2023-09-07T03:11:40;12.80;59.30
12845;DHT22;68700;48.534;9.196;2023-09-07T03:15:02;12.80;72.20
12845;DHT22;68700;48.534;9.196;2023-09-07T03:18:25;12.80;63.20
12845;DHT22;68700;48.534;9.196;2023-09-07T03:21:48;12.80;59.10
12845;DHT22;68700;48.534;9.196;2023-09-07T03:25:10;12.70;49.60
12845;DHT22;68700;48.534;9.196;2023-09-07T03:28:32;12.60;42.70
12845;DHT22;68700;48.534;9.196;2023-09-07T03:31:54;12.60;47.90
12845;DHT22;68700;48.534;9.196;2023-09-07T03:35:16;12.60;58.30
12845;DHT22;68700;48.534;9.196;2023-09-07T03:38:39;12.50;91.00
12845;DHT22;68700;48.534;9.196;2023-09-07T03:42:01;12.50;72.60
12845;DHT22;68700;48.534;9.196;2023-09-07T03:45:23;12.50;80.10
12845;DHT22;68700;48.534;9.196;2023-09-07T03:48:44;12.40;83.60
12845;DHT22;68700;48.534;9.196;2023-09-07T03:52:06;12.40;77.80
12845;DHT22;68700;48.534;9.196;2023-09-07T03:55:30;12.40;80.70
12845;DHT22;68700;48.534;9.196;2023-09-07T03:58:51;12.40;84.00
12845;DHT22;68700;48.534;9.196;2023-09-07T04:02:13;12.30;97.30
12845;DHT22;68700;48.534;9.196;2023-09-07T04:05:37;12.30;99.90
12845;DHT22;68700;48.534;9.196;2023-09-07T04:08:59;12.20;99.90
12845;DHT22;68700;48.534;9.196;2023-09-07T04:12:22;12.20;99.90
12845;DHT22;68700;48.534;9.196;2023-09-07T04:15:44;12.10;99.90
12845;DHT22;68700;48.534;9.196;2023-09-07T04:19:07;12.10;99.90
12845;DHT22;68700;48.534;9.196;2023-09-07T04:22:29;12.10;99.90
12845;DHT22;68700;48.534;9.196;2023-09-07T04:25:51;12.10;99.90
12845;DHT22;68700;48.534;9.196;2023-09-07T04:29:14;12.10;99.90
12845;DHT22;68700;48.534;9.196;2023-09-07T04:32:36;12.10;99.90
12845;DHT22;68700;48.534;9.196;2023-09-07T04:36:07;12.10;99.90
12845;DHT22;68700;48.534;9.196;2023-09-07T04:39:28;12.10;99.90
12845;DHT22;68700;48.534;9.196;2023-09-07T04:42:50;12.10;99.90
12845;DHT22;68700;48.534;9.196;2023-09-07T04:46:14;12.10;99.90
12845;DHT22;68700;48.534;9.196;2023-09-07T04:49:36;12.10;99.90
12845;DHT22;68700;48.534;9.196;2023-09-07T04:52:57;12.00;99.90
12845;DHT22;68700;48.534;9.196;2023-09-07T04:56:19;12.10;99.90
12845;DHT22;68700;48.534;9.196;2023-09-07T04:59:42;12.10;99.90
12845;DHT22;68700;48.534;9.196;2023-09-07T05:03:05;12.10;99.90
12845;DHT22;68700;48.534;9.196;2023-09-07T05:06:27;12.10;99.90
12845;DHT22;68700;48.534;9.196;2023-09-07T05:09:49;12.10;99.90
12845;DHT22;68700;48.534;9.196;2023-09-07T05:13:11;12.20;99.90
12845;DHT22;68700;48.534;9.196;2023-09-07T05:16:33;12.20;99.90
12845;DHT22;68700;48.534;9.196;2023-09-07T05:19:56;12.20;99.90
12845;DHT22;68700;48.534;9.196;2023-09-07T05:23:18;12.20;99.90
12845;DHT22;68700;48.534;9.196;2023-09-07T05:26:41;12.20;99.90
12845;DHT22;68700;48.534;9.196;2023-09-07T05:30:04;12.30;99.90
12845;DHT22;68700;48.534;9.196;2023-09-07T05:33:26;12.30;99.90
12845;DHT22;68700;48.534;9.196;2023-09-07T05:36:50;12.40;99.90
12845;DHT22;68700;48.534;9.196;2023-09-07T05:40:11;12.50;99.90
12845;DHT22;68700;48.534;9.196;2023-09-07T05:43:33;12.60;99.90
12845;DHT22;68700;48.534;9.196;2023-09-07T05:46:55;12.60;99.90
12845;DHT22;68700;48.534;9.196;2023-09-07T05:50:19;12.70;99.90
12845;DHT22;68700;48.534;9.196;2023-09-07T05:53:42;12.80;99.90
12845;DHT22;68700;48.534;9.196;2023-09-07T05:57:04;12.90;99.90
12845;DHT22;68700;48.534;9.196;2023-09-07T06:00:26;13.00;99.90
12845;DHT22;68700;48.534;9.196;2023-09-07T06:03:48;13.10;99.90
12845;DHT22;68700;48.534;9.196;2023-09-07T06:07:10;13.10;99.90
12845;DHT22;68700;48.534;9.196;2023-09-07T06:10:33;13.20;99.90
12845;DHT22;68700;48.534;9.196;2023-09-07T06:13:55;13.30;99.90
12845;DHT22;68700;48.534;9.196;2023-09-07T06:17:17;13.40;99.90
12845;DHT22;68700;48.534;9.196;2023-09-07T06:20:39;13.60;99.90
12845;DHT22;68700;48.534;9.196;2023-09-07T06:24:01;13.80;99.90
12845;DHT22;68700;48.534;9.196;2023-09-07T06:27:24;14.00;99.90
12845;DHT22;68700;48.534;9.196;2023-09-07T06:30:46;14.10;99.90
12845;DHT22;68700;48.534;9.196;2023-09-07T06:34:08;14.30;99.90
12845;DHT22;68700;48.534;9.196;2023-09-07T06:37:30;14.70;99.90
12845;DHT22;68700;48.534;9.196;2023-09-07T06:40:52;15.00;99.90
12845;DHT22;68700;48.534;9.196;2023-09-07T06:44:15;15.40;20.00
12845;DHT22;68700;48.534;9.196;2023-09-07T06:47:37;15.60;15.80
12845;DHT22;68700;48.534;9.196;2023-09-07T06:51:01;15.90;23.80
12845;DHT22;68700;48.534;9.196;2023-09-07T06:54:24;16.10;1.00
12845;DHT22;68700;48.534;9.196;2023-09-07T06:57:46;16.50;1.00
12845;DHT22;68700;48.534;9.196;2023-09-07T07:01:09;16.80;1.00
12845;DHT22;68700;48.534;9.196;2023-09-07T07:04:31;17.10;1.00
12845;DHT22;68700;48.534;9.196;2023-09-07T07:07:53;17.40;1.00
12845;DHT22;68700;48.534;9.196;2023-09-07T07:11:14;17.50;1.00
12845;DHT22;68700;48.534;9.196;2023-09-07T07:14:36;17.70;1.00
12845;DHT22;68700;48.534;9.196;2023-09-07T07:18:02;18.00;1.00
12845;DHT22;68700;48.534;9.196;2023-09-07T07:21:28;18.30;1.00
12845;DHT22;68700;48.534;9.196;2023-09-07T07:24:50;18.50;1.00
12845;DHT22;68700;48.534;9.196;2023-09-07T07:28:12;18.70;1.00
12845;DHT22;68700;48.534;9.196;2023-09-07T07:31:34;18.90;1.00
12845;DHT22;68700;48.534;9.196;2023-09-07T07:34:58;19.20;1.00
12845;DHT22;68700;48.534;9.196;2023-09-07T07:38:19;19.40;1.00
12845;DHT22;68700;48.534;9.196;2023-09-07T07:41:41;19.60;1.00
12845;DHT22;68700;48.534;9.196;2023-09-07T07:45:07;20.00;1.00
12845;DHT22;68700;48.534;9.196;2023-09-07T07:48:29;19.40;1.00
12845;DHT22;68700;48.534;9.196;2023-09-07T07:51:52;19.40;1.00
12845;DHT22;68700;48.534;9.196;2023-09-07T07:55:15;19.80;1.00
12845;DHT22;68700;48.534;9.196;2023-09-07T07:58:38;20.00;1.00
12845;DHT22;68700;48.534;9.196;2023-09-07T08:01:59;20.20;1.00
12845;DHT22;68700;48.534;9.196;2023-09-07T08:05:21;20.30;1.00
12845;DHT22;68700;48.534;9.196;2023-09-07T08:08:44;20.70;1.00
12845;DHT22;68700;48.534;9.196;2023-09-07T08:12:06;20.80;1.00
12845;DHT22;68700;48.534;9.196;2023-09-07T08:15:29;21.20;1.00
12845;DHT22;68700;48.534;9.196;2023-09-07T08:18:52;21.60;1.00
12845;DHT22;68700;48.534;9.196;2023-09-07T08:22:13;21.40;1.00
12845;DHT22;68700;48.534;9.196;2023-09-07T08:25:38;21.50;1.00
12845;DHT22;68700;48.534;9.196;2023-09-07T08:29:05;22.20;1.00
12845;DHT22;68700;48.534;9.196;2023-09-07T08:32:28;22.70;1.00
12845;DHT22;68700;48.534;9.196;2023-09-07T08:35:53;22.70;1.00
12845;DHT22;68700;48.534;9.196;2023-09-07T08:43:31;23.20;1.00
12845;DHT22;68700;48.534;9.196;2023-09-07T08:46:55;22.50;1.00
12845;DHT22;68700;48.534;9.196;2023-09-07T08:50:17;22.60;1.00
12845;DHT22;68700;48.534;9.196;2023-09-07T08:53:40;22.70;1.00
12845;DHT22;68700;48.534;9.196;2023-09-07T08:57:06;22.90;1.00
12845;DHT22;68700;48.534;9.196;2023-09-07T09:00:30;23.70;1.00
12845;DHT22;68700;48.534;9.196;2023-09-07T09:03:52;23.90;1.00
12845;DHT22;68700;48.534;9.196;2023-09-07T09:07:14;24.00;1.00
12845;DHT22;68700;48.534;9.196;2023-09-07T09:10:38;24.40;1.00
12845;DHT22;68700;48.534;9.196;2023-09-07T09:14:05;24.80;1.00
12845;DHT22;68700;48.534;9.196;2023-09-07T09:17:29;25.20;1.00
12845;DHT22;68700;48.534;9.196;2023-09-07T09:20:50;25.50;1.00
12845;DHT22;68700;48.534;9.196;2023-09-07T09:24:12;25.50;1.00
12845;DHT22;68700;48.534;9.196;2023-09-07T09:27:36;25.40;1.00
12845;DHT22;68700;48.534;9.196;2023-09-07T09:30:58;25.70;1.00
12845;DHT22;68700;48.534;9.196;2023-09-07T09:34:22;26.40;1.00
12845;DHT22;68700;48.534;9.196;2023-09-07T09:37:44;26.70;1.00
12845;DHT22;68700;48.534;9.196;2023-09-07T09:41:08;27.00;1.00
12845;DHT22;68700;48.534;9.196;2023-09-07T09:44:32;27.00;1.00
12845;DHT22;68700;48.534;9.196;2023-09-07T09:47:55;26.70;1.00
12845;DHT22;68700;48.534;9.196;2023-09-07T09:51:18;27.10;1.00
12845;DHT22;68700;48.534;9.196;2023-09-07T09:54:41;27.20;1.00
12845;DHT22;68700;48.534;9.196;2023-09-07T09:58:04;27.80;1.00
12845;DHT22;68700;48.534;9.196;2023-09-07T10:01:26;27.80;1.00
12845;DHT22;68700;48.534;9.196;2023-09-07T10:04:48;28.00;1.00
12845;DHT22;68700;48.534;9.196;2023-09-07T10:08:12;27.60;1.00
12845;DHT22;68700;48.534;9.196;2023-09-07T10:11:36;28.20;1.00
12845;DHT22;68700;48.534;9.196;2023-09-07T10:14:58;28.60;1.00
12845;DHT22;68700;48.534;9.196;2023-09-07T10:18:20;28.80;1.00
12845;DHT22;68700;48.534;9.196;2023-09-07T10:21:42;28.90;1.00
12845;DHT22;68700;48.534;9.196;2023-09-07T10:25:06;29.20;1.00
12845;DHT22;68700;48.534;9.196;2023-09-07T10:28:32;29.20;1.00
12845;DHT22;68700;48.534;9.196;2023-09-07T10:31:54;30.20;1.00
12845;DHT22;68700;48.534;9.196;2023-09-07T10:35:18;30.30;1.00
12845;DHT22;68700;48.534;9.196;2023-09-07T10:38:42;30.60;1.00
12845;DHT22;68700;48.534;9.196;2023-09-07T10:42:05;30.50;1.00
12845;DHT22;68700;48.534;9.196;2023-09-07T10:45:27;30.80;1.00
12845;DHT22;68700;48.534;9.196;2023-09-07T10:48:50;30.80;1.00
12845;DHT22;68700;48.534;9.196;2023-09-07T10:52:12;31.00;1.00
12845;DHT22;68700;48.534;9.196;2023-09-07T10:55:36;30.90;1.00
12845;DHT22;68700;48.534;9.196;2023-09-07T10:59:02;31.10;1.00
12845;DHT22;68700;48.534;9.196;2023-09-07T11:02:24;31.40;1.00
12845;DHT22;68700;48.534;9.196;2023-09-07T11:05:46;31.60;1.00
12845;DHT22;68700;48.534;9.196;2023-09-07T11:09:09;31.50;1.00
12845;DHT22;68700;48.534;9.196;2023-09-07T11:12:36;31.30;1.00
12845;DHT22;68700;48.534;9.196;2023-09-07T11:16:00;31.60;1.00
12845;DHT22;68700;48.534;9.196;2023-09-07T11:19:22;31.70;1.00
12845;DHT22;68700;48.534;9.196;2023-09-07T11:22:44;31.40;1.00
12845;DHT22;68700;48.534;9.196;2023-09-07T11:26:07;32.30;1.00
12845;DHT22;68700;48.534;9.196;2023-09-07T11:29:31;31.80;1.00
12845;DHT22;68700;48.534;9.196;2023-09-07T11:33:01;31.90;1.00
12845;DHT22;68700;48.534;9.196;2023-09-07T11:36:23;31.00;1.00
12845;DHT22;68700;48.534;9.196;2023-09-07T11:39:46;31.40;1.00
12845;DHT22;68700;48.534;9.196;2023-09-07T11:43:07;32.30;1.00
12845;DHT22;68700;48.534;9.196;2023-09-07T11:46:29;31.90;1.00
12845;DHT22;68700;48.534;9.196;2023-09-07T11:49:52;32.70;1.00
12845;DHT22;68700;48.534;9.196;2023-09-07T11:53:14;33.10;1.00
12845;DHT22;68700;48.534;9.196;2023-09-07T11:56:36;31.60;1.00
12845;DHT22;68700;48.534;9.196;2023-09-07T12:00:05;31.60;1.00
12845;DHT22;68700;48.534;9.196;2023-09-07T12:03:31;32.90;1.00
12845;DHT22;68700;48.534;9.196;2023-09-07T12:06:55;33.10;1.00
12845;DHT22;68700;48.534;9.196;2023-09-07T12:10:17;33.00;1.00
12845;DHT22;68700;48.534;9.196;2023-09-07T12:13:38;33.20;1.00
12845;DHT22;68700;48.534;9.196;2023-09-07T12:17:00;33.20;1.00
12845;DHT22;68700;48.534;9.196;2023-09-07T12:20:22;34.30;1.00
12845;DHT22;68700;48.534;9.196;2023-09-07T12:23:45;34.00;1.00
12845;DHT22;68700;48.534;9.196;2023-09-07T12:27:07;34.50;1.00
12845;DHT22;68700;48.534;9.196;2023-09-07T12:30:29;34.80;1.00
12845;DHT22;68700;48.534;9.196;2023-09-07T12:33:51;34.80;1.00
12845;DHT22;68700;48.534;9.196;2023-09-07T12:37:13;34.50;1.00
12845;DHT22;68700;48.534;9.196;2023-09-07T12:40:36;34.80;1.00
12845;DHT22;68700;48.534;9.196;2023-09-07T12:43:58;34.80;1.00
12845;DHT22;68700;48.534;9.196;2023-09-07T12:47:20;35.00;1.00
12845;DHT22;68700;48.534;9.196;2023-09-07T12:50:41;35.30;1.00
12845;DHT22;68700;48.534;9.196;2023-09-07T12:54:04;35.20;1.00
12845;DHT22;68700;48.534;9.196;2023-09-07T12:57:27;35.20;1.00
12845;DHT22;68700;48.534;9.196;2023-09-07T13:00:49;35.40;1.00
12845;DHT22;68700;48.534;9.196;2023-09-07T13:04:12;35.90;1.00
12845;DHT22;68700;48.534;9.196;2023-09-07T13:07:43;35.80;1.00
12845;DHT22;68700;48.534;9.196;2023-09-07T13:11:06;35.40;1.00
12845;DHT22;68700;48.534;9.196;2023-09-07T13:14:30;34.60;1.00
12845;DHT22;68700;48.534;9.196;2023-09-07T13:17:52;34.50;1.00
12845;DHT22;68700;48.534;9.196;2023-09-07T13:21:13;34.00;1.00
12845;DHT22;68700;48.534;9.196;2023-09-07T13:24:35;34.70;1.00
12845;DHT22;68700;48.534;9.196;2023-09-07T13:28:00;35.00;1.00
12845;DHT22;68700;48.534;9.196;2023-09-07T13:31:23;35.50;1.00
12845;DHT22;68700;48.534;9.196;2023-09-07T13:34:45;35.00;1.00
12845;DHT22;68700;48.534;9.196;2023-09-07T13:38:07;34.70;1.00
12845;DHT22;68700;48.534;9.196;2023-09-07T13:41:29;34.60;1.00
12845;DHT22;68700;48.534;9.196;2023-09-07T13:44:50;34.60;1.00
12845;DHT22;68700;48.534;9.196;2023-09-07T13:48:14;34.30;1.00
12845;DHT22;68700;48.534;9.196;2023-09-07T13:51:35;35.00;1.00
12845;DHT22;68700;48.534;9.196;2023-09-07T13:55:00;35.10;1.00
12845;DHT22;68700;48.534;9.196;2023-09-07T13:58:21;34.10;1.00
12845;DHT22;68700;48.534;9.196;2023-09-07T14:01:43;34.60;1.00
12845;DHT22;68700;48.534;9.196;2023-09-07T14:05:07;34.50;1.00
12845;DHT22;68700;48.534;9.196;2023-09-07T14:08:35;34.40;1.00
12845;DHT22;68700;48.534;9.196;2023-09-07T14:11:57;35.10;1.00
12845;DHT22;68700;48.534;9.196;2023-09-07T14:15:18;35.20;1.00
12845;DHT22;68700;48.534;9.196;2023-09-07T14:18:40;35.00;1.00
12845;DHT22;68700;48.534;9.196;2023-09-07T14:22:04;35.20;1.00
12845;DHT22;68700;48.534;9.196;2023-09-07T14:25:26;34.50;1.00
12845;DHT22;68700;48.534;9.196;2023-09-07T14:28:47;34.40;1.00
12845;DHT22;68700;48.534;9.196;2023-09-07T14:32:11;34.70;1.00
12845;DHT22;68700;48.534;9.196;2023-09-07T14:35:32;34.80;1.00
12845;DHT22;68700;48.534;9.196;2023-09-07T14:38:56;35.20;1.00
12845;DHT22;68700;48.534;9.196;2023-09-07T14:42:18;35.40;1.00
12845;DHT22;68700;48.534;9.196;2023-09-07T14:45:40;35.50;1.00
12845;DHT22;68700;48.534;9.196;2023-09-07T14:49:02;35.50;1.00
12845;DHT22;68700;48.534;9.196;2023-09-07T14:52:24;35.10;1.00
12845;DHT22;68700;48.534;9.196;2023-09-07T14:55:47;34.70;1.00
12845;DHT22;68700;48.534;9.196;2023-09-07T14:59:09;34.90;1.00
12845;DHT22;68700;48.534;9.196;2023-09-07T15:02:31;34.70;1.00
12845;DHT22;68700;48.534;9.196;2023-09-07T15:05:53;34.70;1.00
12845;DHT22;68700;48.534;9.196;2023-09-07T15:09:15;34.90;1.00
12845;DHT22;68700;48.534;9.196;2023-09-07T15:12:39;34.60;1.00
12845;DHT22;68700;48.534;9.196;2023-09-07T15:16:01;34.80;1.00
12845;DHT22;68700;48.534;9.196;2023-09-07T15:19:22;34.40;1.00
12845;DHT22;68700;48.534;9.196;2023-09-07T15:22:44;34.60;1.00
12845;DHT22;68700;48.534;9.196;2023-09-07T15:26:06;34.40;1.00
12845;DHT22;68700;48.534;9.196;2023-09-07T15:29:30;34.60;1.00
12845;DHT22;68700;48.534;9.196;2023-09-07T15:32:51;34.30;1.00
12845;DHT22;68700;48.534;9.196;2023-09-07T15:36:13;34.00;1.00
12845;DHT22;68700;48.534;9.196;2023-09-07T15:39:37;33.40;99.90
12845;DHT22;68700;48.534;9.196;2023-09-07T15:42:59;33.40;99.90
12845;DHT22;68700;48.534;9.196;2023-09-07T15:46:22;33.40;99.90
12845;DHT22;68700;48.534;9.196;2023-09-07T15:49:45;33.50;99.90
12845;DHT22;68700;48.534;9.196;2023-09-07T15:53:09;32.80;99.90
12845;DHT22;68700;48.534;9.196;2023-09-07T15:56:30;32.90;99.90
12845;DHT22;68700;48.534;9.196;2023-09-07T15:59:52;32.90;99.90
12845;DHT22;68700;48.534;9.196;2023-09-07T16:03:18;32.70;99.90
12845;DHT22;68700;48.534;9.196;2023-09-07T16:06:39;32.80;99.90
12845;DHT22;68700;48.534;9.196;2023-09-07T16:10:01;32.70;99.90
12845;DHT22;68700;48.534;9.196;2023-09-07T16:13:23;32.40;99.90
12845;DHT22;68700;48.534;9.196;2023-09-07T16:16:45;32.20;99.90
12845;DHT22;68700;48.534;9.196;2023-09-07T16:20:09;32.60;99.90
12845;DHT22;68700;48.534;9.196;2023-09-07T16:23:31;33.40;99.90
12845;DHT22;68700;48.534;9.196;2023-09-07T16:26:53;33.50;99.90
12845;DHT22;68700;48.534;9.196;2023-09-07T16:30:18;33.50;1.40
12845;DHT22;68700;48.534;9.196;2023-09-07T16:33:40;33.10;99.90
12845;DHT22;68700;48.534;9.196;2023-09-07T16:37:03;32.70;99.90
12845;DHT22;68700;48.534;9.196;2023-09-07T16:40:25;32.10;99.90
12845;DHT22;68700;48.534;9.196;2023-09-07T16:43:47;32.10;99.90
12845;DHT22;68700;48.534;9.196;2023-09-07T16:47:09;32.00;99.90
12845;DHT22;68700;48.534;9.196;2023-09-07T16:50:31;31.80;99.90
12845;DHT22;68700;48.534;9.196;2023-09-07T16:53:54;31.50;99.90
12845;DHT22;68700;48.534;9.196;2023-09-07T16:57:16;30.70;99.90
12845;DHT22;68700;48.534;9.196;2023-09-07T17:00:38;30.00;99.90
12845;DHT22;68700;48.534;9.196;2023-09-07T17:04:00;29.40;99.90
12845;DHT22;68700;48.534;9.196;2023-09-07T17:07:21;29.00;99.90
12845;DHT22;68700;48.534;9.196;2023-09-07T17:10:45;28.50;99.90
12845;DHT22;68700;48.534;9.196;2023-09-07T17:14:08;28.30;99.90
12845;DHT22;68700;48.534;9.196;2023-09-07T17:17:30;27.90;99.90
12845;DHT22;68700;48.534;9.196;2023-09-07T17:20:51;27.70;99.90
12845;DHT22;68700;48.534;9.196;2023-09-07T17:24:13;27.50;99.90
12845;DHT22;68700;48.534;9.196;2023-09-07T17:27:37;27.30;99.90
12845;DHT22;68700;48.534;9.196;2023-09-07T17:30:59;27.10;99.90
12845;DHT22;68700;48.534;9.196;2023-09-07T17:34:23;26.80;99.90
12845;DHT22;68700;48.534;9.196;2023-09-07T17:37:45;26.60;99.90
12845;DHT22;68700;48.534;9.196;2023-09-07T17:41:07;26.30;99.90
12845;DHT22;68700;48.534;9.196;2023-09-07T17:44:33;26.20;99.90
12845;DHT22;68700;48.534;9.196;2023-09-07T17:47:55;26.00;99.90
12845;DHT22;68700;48.534;9.196;2023-09-07T17:51:25;25.80;99.90
12845;DHT22;68700;48.534;9.196;2023-09-07T17:55:01;25.60;1.00
12845;DHT22;68700;48.534;9.196;2023-09-07T17:58:23;25.40;1.00
12845;DHT22;68700;48.534;9.196;2023-09-07T18:01:46;25.20;1.00
12845;DHT22;68700;48.534;9.196;2023-09-07T18:05:08;25.10;1.00
12845;DHT22;68700;48.534;9.196;2023-09-07T18:08:30;24.90;1.00
12845;DHT22;68700;48.534;9.196;2023-09-07T18:11:52;25.20;1.00
12845;DHT22;68700;48.534;9.196;2023-09-07T18:15:14;25.80;1.00
12845;DHT22;68700;48.534;9.196;2023-09-07T18:18:37;26.30;99.90
12845;DHT22;68700;48.534;9.196;2023-09-07T18:21:59;26.30;1.00
12845;DHT22;68700;48.534;9.196;2023-09-07T18:25:22;26.80;99.90
12845;DHT22;68700;48.534;9.196;2023-09-07T18:28:44;26.80;99.90
12845;DHT22;68700;48.534;9.196;2023-09-07T18:32:06;26.30;99.90
12845;DHT22;68700;48.534;9.196;2023-09-07T18:35:29;25.80;1.00
12845;DHT22;68700;48.534;9.196;2023-09-07T18:38:51;25.20;1.00
12845;DHT22;68700;48.534;9.196;2023-09-07T18:42:13;24.90;1.00
12845;DHT22;68700;48.534;9.196;2023-09-07T18:45:35;24.50;1.00
12845;DHT22;68700;48.534;9.196;2023-09-07T18:48:57;24.10;1.00
12845;DHT22;68700;48.534;9.196;2023-09-07T18:52:20;23.80;1.00
12845;DHT22;68700;48.534;9.196;2023-09-07T18:55:42;23.60;1.00
12845;DHT22;68700;48.534;9.196;2023-09-07T18:59:04;23.30;1.00
12845;DHT22;68700;48.534;9.196;2023-09-07T19:02:27;23.10;1.00
12845;DHT22;68700;48.534;9.196;2023-09-07T19:05:50;23.00;1.00
12845;DHT22;68700;48.534;9.196;2023-09-07T19:09:13;22.80;1.00
12845;DHT22;68700;48.534;9.196;2023-09-07T19:12:36;22.70;1.00
12845;DHT22;68700;48.534;9.196;2023-09-07T19:15:57;22.50;1.00
12845;DHT22;68700;48.534;9.196;2023-09-07T19:19:19;22.30;1.00
12845;DHT22;68700;48.534;9.196;2023-09-07T19:22:41;22.20;1.00
12845;DHT22;68700;48.534;9.196;2023-09-07T19:26:25;22.00;1.00
12845;DHT22;68700;48.534;9.196;2023-09-07T19:29:46;21.90;1.00
12845;DHT22;68700;48.534;9.196;2023-09-07T19:33:09;21.80;1.00
12845;DHT22;68700;48.534;9.196;2023-09-07T19:36:31;21.70;1.00
12845;DHT22;68700;48.534;9.196;2023-09-07T19:39:53;21.60;1.00
12845;DHT22;68700;48.534;9.196;2023-09-07T19:43:16;21.40;1.00
12845;DHT22;68700;48.534;9.196;2023-09-07T19:46:38;21.30;1.00
12845;DHT22;68700;48.534;9.196;2023-09-07T19:49:59;21.20;1.00
12845;DHT22;68700;48.534;9.196;2023-09-07T19:53:21;21.10;1.00
12845;DHT22;68700;48.534;9.196;2023-09-07T19:56:43;21.00;1.00
12845;DHT22;68700;48.534;9.196;2023-09-07T20:00:08;20.90;1.00
12845;DHT22;68700;48.534;9.196;2023-09-07T20:03:30;20.80;1.00
12845;DHT22;68700;48.534;9.196;2023-09-07T20:06:52;20.70;1.00
12845;DHT22;68700;48.534;9.196;2023-09-07T20:10:14;20.50;1.00
12845;DHT22;68700;48.534;9.196;2023-09-07T20:13:37;20.40;1.00
12845;DHT22;68700;48.534;9.196;2023-09-07T20:17:00;20.20;1.00
12845;DHT22;68700;48.534;9.196;2023-09-07T20:20:22;20.10;1.00
12845;DHT22;68700;48.534;9.196;2023-09-07T20:23:44;20.10;1.00
12845;DHT22;68700;48.534;9.196;2023-09-07T20:27:05;19.90;1.00
12845;DHT22;68700;48.534;9.196;2023-09-07T20:30:27;19.80;1.00
12845;DHT22;68700;48.534;9.196;2023-09-07T20:33:50;19.50;1.00
12845;DHT22;68700;48.534;9.196;2023-09-07T20:37:12;19.40;1.00
12845;DHT22;68700;48.534;9.196;2023-09-07T20:40:35;19.30;1.00
12845;DHT22;68700;48.534;9.196;2023-09-07T20:43:57;19.30;1.00
12845;DHT22;68700;48.534;9.196;2023-09-07T20:47:19;19.30;1.00
12845;DHT22;68700;48.534;9.196;2023-09-07T20:50:42;19.00;1.00
12845;DHT22;68700;48.534;9.196;2023-09-07T20:54:05;18.90;1.00
12845;DHT22;68700;48.534;9.196;2023-09-07T20:57:26;18.80;1.00
12845;DHT22;68700;48.534;9.196;2023-09-07T21:00:48;18.80;1.00
12845;DHT22;68700;48.534;9.196;2023-09-07T21:04:10;18.70;1.00
12845;DHT22;68700;48.534;9.196;2023-09-07T21:07:33;18.60;1.00
12845;DHT22;68700;48.534;9.196;2023-09-07T21:10:55;18.50;1.00
12845;DHT22;68700;48.534;9.196;2023-09-07T21:14:17;18.20;1.00
12845;DHT22;68700;48.534;9.196;2023-09-07T21:17:39;18.10;1.00
12845;DHT22;68700;48.534;9.196;2023-09-07T21:21:01;17.90;1.00
12845;DHT22;68700;48.534;9.196;2023-09-07T21:24:24;17.80;1.00
12845;DHT22;68700;48.534;9.196;2023-09-07T21:27:46;17.90;1.00
12845;DHT22;68700;48.534;9.196;2023-09-07T21:31:08;17.90;1.00
12845;DHT22;68700;48.534;9.196;2023-09-07T21:34:30;17.80;1.00
12845;DHT22;68700;48.534;9.196;2023-09-07T21:37:52;17.70;1.00